Time;durP1;ratioP1;P1;durP2;ratioP2;P2;SDS_P1;SDS_P2;PMS_P1;PMS_P2;Temp;Humidity;BMP_temperature;BMP_pressure;BME280_temperature;BME280_humidity;BME280_pressure;Samples;Min_cycle;Max_cycle;Signal;HPM_P1;HPM_P2
2022/05/27 00:00:17;;;;;;;8.27;7.70;;;15.30;99.90;;;;;;5080626;28;20493;-67
2022/05/27 00:02:45;;;;;;;8.77;7.97;;;15.30;99.90;;;;;;5077864;28;20978;-67
2022/05/27 00:05:13;;;;;;;11.33;7.43;;;15.20;99.90;;;;;;5075736;28;20553;-67
2022/05/27 00:07:40;;;;;;;7.87;7.57;;;15.20;99.90;;;;;;5078963;28;20481;-68
2022/05/27 00:10:11;;;;;;;8.47;7.87;;;15.30;99.90;;;;;;5084985;28;20458;-67
2022/05/27 00:12:42;;;;;;;8.90;8.30;;;15.20;99.90;;;;;;5083927;28;20525;-67
2022/05/27 00:15:10;;;;;;;9.03;8.17;;;15.20;99.90;;;;;;5080190;28;20464;-67
2022/05/27 00:17:37;;;;;;;9.27;8.33;;;15.20;99.90;;;;;;5083426;28;20486;-68
2022/05/27 00:20:05;;;;;;;8.17;7.43;;;15.20;99.90;;;;;;5080121;28;20485;-67
2022/05/27 00:22:33;;;;;;;9.00;8.30;;;15.20;99.90;;;;;;5071948;28;20501;-67
2022/05/27 00:25:00;;;;;;;7.93;7.50;;;15.30;99.90;;;;;;5086226;28;20454;-68
2022/05/27 00:27:29;;;;;;;8.30;7.80;;;15.20;99.90;;;;;;5091084;28;20465;-68
2022/05/27 00:29:55;;;;;;;8.17;7.70;;;15.20;99.90;;;;;;5082161;28;20465;-67
2022/05/27 00:32:24;;;;;;;8.77;7.80;;;15.20;99.90;;;;;;5080499;28;20847;-67
2022/05/27 00:34:50;;;;;;;8.83;8.17;;;15.30;99.90;;;;;;5082402;28;20811;-67
2022/05/27 00:37:17;;;;;;;8.13;7.50;;;15.20;99.90;;;;;;5073834;28;20809;-67
2022/05/27 00:39:44;;;;;;;8.13;7.67;;;15.20;99.90;;;;;;5077627;28;20485;-67
2022/05/27 00:42:12;;;;;;;8.83;8.23;;;15.10;99.90;;;;;;5084623;28;20461;-67
2022/05/27 00:44:40;;;;;;;7.77;7.27;;;15.10;99.90;;;;;;5080101;28;21033;-68
2022/05/27 00:47:10;;;;;;;10.30;8.23;;;15.10;99.90;;;;;;5080134;28;20458;-68
2022/05/27 00:49:44;;;;;;;8.40;7.70;;;15.10;99.90;;;;;;5072412;28;20545;-67
2022/05/27 00:52:14;;;;;;;8.10;7.40;;;15.10;99.90;;;;;;5083369;28;20475;-68
2022/05/27 00:54:42;;;;;;;8.77;7.90;;;15.10;99.90;;;;;;5074543;28;20459;-66
2022/05/27 00:57:13;;;;;;;8.90;8.10;;;14.90;99.90;;;;;;5079159;28;20461;-67
2022/05/27 00:59:44;;;;;;;9.77;8.87;;;14.70;99.90;;;;;;5077608;28;20501;-67
2022/05/27 01:02:11;;;;;;;12.57;8.77;;;14.60;99.90;;;;;;5074947;28;20477;-66
2022/05/27 01:04:39;;;;;;;10.93;9.90;;;14.50;99.90;;;;;;5074985;28;20463;-67
2022/05/27 01:07:06;;;;;;;12.00;11.40;;;14.40;99.90;;;;;;5083049;28;20978;-66
2022/05/27 01:09:37;;;;;;;12.47;11.47;;;14.20;99.90;;;;;;5074622;28;20478;-66
2022/05/27 01:12:37;;;;;;;13.63;12.53;;;14.10;99.90;;;;;;5075570;28;20493;-66
2022/05/27 01:15:23;;;;;;;11.57;10.63;;;14.00;99.90;;;;;;5058785;28;20459;-66
2022/05/27 01:18:01;;;;;;;13.03;11.73;;;14.00;99.90;;;;;;5082542;28;20889;-67
2022/05/27 01:20:38;;;;;;;12.50;11.60;;;14.00;99.90;;;;;;5081475;28;20801;-66
2022/05/27 01:23:41;;;;;;;10.97;10.00;;;14.10;99.90;;;;;;5077966;28;20549;-66
2022/05/27 01:26:50;;;;;;;9.43;8.83;;;14.10;99.90;;;;;;5076482;28;20462;-67
2022/05/27 01:29:55;;;;;;;8.87;8.03;;;14.10;99.90;;;;;;5081190;28;20513;-68
2022/05/27 01:32:31;;;;;;;7.90;7.20;;;14.30;99.90;;;;;;5079659;28;20783;-66
2022/05/27 01:35:07;;;;;;;7.20;6.80;;;14.30;99.90;;;;;;5079244;28;20812;-67
2022/05/27 01:37:42;;;;;;;12.17;8.37;;;14.40;99.90;;;;;;5073056;28;20498;-67
2022/05/27 01:40:15;;;;;;;7.23;6.73;;;14.50;99.90;;;;;;5084868;28;20486;-67
2022/05/27 01:42:49;;;;;;;8.17;7.53;;;14.60;99.90;;;;;;5074337;28;21018;-68
2022/05/27 01:45:22;;;;;;;12.70;7.73;;;14.70;99.90;;;;;;5081621;28;20481;-66
2022/05/27 01:47:56;;;;;;;8.63;7.93;;;14.60;99.90;;;;;;5075592;28;20458;-67
2022/05/27 01:50:29;;;;;;;9.47;8.07;;;14.60;99.90;;;;;;5078969;28;20468;-68
2022/05/27 01:53:02;;;;;;;9.00;8.20;;;14.70;99.90;;;;;;5076638;28;20462;-67
2022/05/27 01:55:35;;;;;;;11.00;8.13;;;14.80;99.90;;;;;;5074109;28;20554;-67
2022/05/27 01:58:06;;;;;;;9.10;8.30;;;14.80;99.90;;;;;;5082703;28;20458;-66
2022/05/27 02:00:34;;;;;;;9.00;8.30;;;14.80;99.90;;;;;;5079682;28;20486;-67
2022/05/27 02:03:07;;;;;;;9.40;8.70;;;14.80;99.90;;;;;;5079389;28;20461;-67
2022/05/27 02:05:39;;;;;;;10.00;9.17;;;14.70;99.90;;;;;;5078105;28;20469;-67
2022/05/27 02:08:14;;;;;;;12.07;8.90;;;14.70;99.90;;;;;;5078035;28;20493;-67
2022/05/27 02:10:47;;;;;;;9.53;8.53;;;14.70;99.90;;;;;;5075764;28;20482;-66
2022/05/27 02:13:19;;;;;;;10.87;9.80;;;14.50;99.90;;;;;;5073578;28;20491;-66
2022/05/27 02:15:48;;;;;;;10.83;9.93;;;14.40;99.90;;;;;;5083449;28;20469;-67
2022/05/27 02:18:23;;;;;;;13.47;12.50;;;14.30;99.90;;;;;;5079906;28;20545;-67
2022/05/27 02:20:55;;;;;;;13.37;12.27;;;14.30;99.90;;;;;;5079348;28;20504;-68
2022/05/27 02:23:27;;;;;;;14.20;13.13;;;14.30;99.90;;;;;;5077857;28;20514;-70
2022/05/27 02:25:56;;;;;;;13.80;12.80;;;14.10;99.90;;;;;;5075495;28;20789;-68
2022/05/27 02:28:26;;;;;;;14.33;12.90;;;14.00;99.90;;;;;;5074937;28;20968;-66
2022/05/27 02:30:59;;;;;;;13.27;12.17;;;14.00;99.90;;;;;;5070452;28;20466;-67
2022/05/27 02:36:21;;;;;;;13.57;12.77;;;13.90;99.90;;;;;;5078167;28;20461;-67
2022/05/27 02:38:50;;;;;;;14.17;12.70;;;13.80;99.90;;;;;;5080218;28;20576;-66
2022/05/27 02:41:24;;;;;;;13.27;12.47;;;13.80;99.90;;;;;;5080562;28;20462;-67
2022/05/27 02:44:00;;;;;;;13.27;12.27;;;13.70;99.90;;;;;;5080803;28;20511;-67
2022/05/27 02:46:33;;;;;;;13.77;12.50;;;13.60;99.90;;;;;;5077728;28;20463;-67
2022/05/27 02:49:10;;;;;;;12.30;11.40;;;13.60;99.90;;;;;;5083508;28;20463;-67
2022/05/27 02:51:45;;;;;;;12.50;11.40;;;13.70;99.90;;;;;;5080375;28;20960;-68
2022/05/27 02:54:22;;;;;;;12.10;11.40;;;13.50;99.90;;;;;;5073177;28;20461;-67
2022/05/27 02:56:57;;;;;;;11.37;10.67;;;13.50;99.90;;;;;;5074426;28;20470;-67
2022/05/27 02:59:25;;;;;;;12.10;11.20;;;13.50;99.90;;;;;;5080917;28;20485;-67
2022/05/27 03:01:52;;;;;;;12.03;11.13;;;13.50;99.90;;;;;;5076137;28;20476;-68
2022/05/27 03:04:22;;;;;;;12.10;11.10;;;13.50;99.90;;;;;;5079383;28;21043;-66
2022/05/27 03:07:01;;;;;;;12.07;11.07;;;13.50;99.90;;;;;;5076254;28;20475;-67
2022/05/27 03:09:38;;;;;;;12.20;11.00;;;13.50;99.90;;;;;;5081073;28;20900;-68
2022/05/27 03:12:12;;;;;;;12.67;11.70;;;13.50;99.90;;;;;;5076042;28;20469;-69
2022/05/27 03:14:57;;;;;;;11.27;10.27;;;13.60;99.90;;;;;;5074801;28;20455;-67
2022/05/27 03:17:34;;;;;;;11.57;10.67;;;13.50;99.90;;;;;;5081795;28;20978;-67
2022/05/27 03:20:19;;;;;;;13.93;12.03;;;13.50;99.90;;;;;;5081630;28;21064;-67
2022/05/27 03:23:14;;;;;;;11.20;10.40;;;13.40;99.90;;;;;;5078501;28;20822;-67
2022/05/27 03:25:45;;;;;;;10.97;10.10;;;13.30;99.90;;;;;;5073844;28;20463;-67
2022/05/27 03:28:20;;;;;;;10.70;9.70;;;13.20;99.90;;;;;;5076298;28;20471;-67
2022/05/27 03:30:55;;;;;;;11.77;10.50;;;13.20;99.90;;;;;;5080733;28;20468;-67
2022/05/27 03:33:29;;;;;;;10.20;9.50;;;13.20;99.90;;;;;;5080655;28;20465;-66
2022/05/27 03:36:04;;;;;;;10.70;9.90;;;13.10;99.90;;;;;;5077542;28;20471;-66
2022/05/27 03:38:37;;;;;;;11.10;10.20;;;13.10;99.90;;;;;;5070628;28;20505;-67
2022/05/27 03:41:08;;;;;;;12.17;11.10;;;13.00;99.90;;;;;;5077720;28;20494;-67
2022/05/27 03:43:36;;;;;;;12.23;11.43;;;13.10;99.90;;;;;;5082201;28;20985;-67
2022/05/27 03:46:04;;;;;;;13.27;12.43;;;13.10;99.90;;;;;;5076829;28;20959;-68
2022/05/27 03:48:37;;;;;;;14.40;13.30;;;13.10;99.90;;;;;;5071826;28;20459;-67
2022/05/27 03:51:11;;;;;;;16.40;15.03;;;13.20;99.90;;;;;;5070903;28;20478;-67
2022/05/27 03:56:40;;;;;;;19.77;18.57;;;13.10;99.90;;;;;;5016126;28;20812;-67
2022/05/27 03:59:09;;;;;;;21.23;19.63;;;13.20;99.90;;;;;;5017202;28;20991;-67
2022/05/27 04:01:39;;;;;;;22.83;21.13;;;13.20;99.90;;;;;;5043352;28;20477;-67
2022/05/27 04:04:09;;;;;;;22.93;21.23;;;13.10;99.90;;;;;;5052827;28;20474;-67
2022/05/27 04:06:37;;;;;;;23.73;21.97;;;13.10;99.90;;;;;;5063951;28;20473;-68
2022/05/27 04:09:04;;;;;;;22.97;21.37;;;13.00;99.90;;;;;;5074839;28;20490;-67
2022/05/27 04:11:31;;;;;;;25.27;22.60;;;13.00;99.90;;;;;;5078857;28;20458;-68
2022/05/27 04:13:58;;;;;;;23.63;21.80;;;13.00;99.90;;;;;;5081846;28;20974;-67
2022/05/27 04:16:26;;;;;;;21.87;19.97;;;13.10;99.90;;;;;;5059816;28;20466;-68
2022/05/27 04:18:53;;;;;;;22.77;20.77;;;13.10;99.90;;;;;;5049682;28;21246;-68
2022/05/27 04:21:20;;;;;;;22.50;21.03;;;13.10;99.90;;;;;;5064300;28;20490;-67
2022/05/27 04:23:48;;;;;;;23.60;21.67;;;13.10;99.90;;;;;;5074744;28;20473;-68
2022/05/27 04:26:15;;;;;;;23.50;21.80;;;13.10;99.90;;;;;;5064791;28;20520;-66
2022/05/27 04:28:43;;;;;;;23.90;22.20;;;13.10;99.90;;;;;;5051175;28;20466;-68
2022/05/27 04:31:09;;;;;;;24.40;22.40;;;13.10;99.90;;;;;;5050651;28;20462;-68
2022/05/27 04:33:36;;;;;;;23.90;22.00;;;13.20;99.90;;;;;;5051294;28;20467;-66
2022/05/27 04:36:04;;;;;;;23.33;21.63;;;13.20;99.90;;;;;;5049597;28;20997;-67
2022/05/27 04:38:32;;;;;;;24.20;22.40;;;13.10;99.90;;;;;;5051240;28;20467;-67
2022/05/27 04:41:01;;;;;;;24.27;21.73;;;13.10;99.90;;;;;;5049388;28;20577;-69
2022/05/27 04:43:28;;;;;;;21.60;19.90;;;13.10;99.90;;;;;;5051438;28;21514;-67
2022/05/27 04:45:55;;;;;;;22.17;20.10;;;13.20;99.90;;;;;;5050170;28;20652;-66
2022/05/27 04:48:22;;;;;;;24.00;21.90;;;13.10;99.90;;;;;;5050154;28;20470;-68
2022/05/27 04:50:49;;;;;;;25.33;22.77;;;13.20;99.90;;;;;;5050972;28;20462;-69
2022/05/27 04:53:15;;;;;;;24.00;22.00;;;13.20;99.90;;;;;;5051088;28;20459;-66
2022/05/27 04:55:44;;;;;;;24.77;22.90;;;13.30;99.90;;;;;;5048431;28;20471;-67
2022/05/27 04:58:13;;;;;;;25.17;23.00;;;13.30;99.90;;;;;;5050026;28;20467;-68
2022/05/27 05:00:43;;;;;;;23.20;21.20;;;13.40;99.90;;;;;;5050354;28;20550;-67
2022/05/27 05:03:12;;;;;;;21.43;19.80;;;13.40;99.90;;;;;;5050326;28;22527;-67
2022/05/27 05:05:39;;;;;;;19.57;17.63;;;13.40;99.90;;;;;;5051255;28;20973;-68
2022/05/27 05:08:09;;;;;;;20.30;18.80;;;13.30;99.90;;;;;;5050026;28;20490;-67
2022/05/27 05:10:37;;;;;;;18.73;17.50;;;13.30;99.90;;;;;;5050163;28;20463;-68
2022/05/27 05:13:03;;;;;;;19.63;18.23;;;13.40;99.90;;;;;;5049644;28;20451;-68
2022/05/27 05:15:32;;;;;;;21.00;19.20;;;13.40;99.90;;;;;;5050380;28;20473;-69
2022/05/27 05:17:59;;;;;;;20.53;18.93;;;13.50;99.90;;;;;;5049297;28;21268;-68
2022/05/27 05:20:31;;;;;;;20.40;18.57;;;13.40;99.90;;;;;;5049630;28;20498;-66
2022/05/27 05:22:58;;;;;;;18.67;17.57;;;13.40;99.90;;;;;;5050225;28;20455;-67
2022/05/27 05:25:26;;;;;;;20.40;18.50;;;13.40;99.90;;;;;;5048396;28;20843;-67
2022/05/27 05:27:53;;;;;;;18.23;17.03;;;13.30;99.90;;;;;;5049029;28;20931;-67
2022/05/27 05:30:23;;;;;;;16.50;15.40;;;13.30;99.90;;;;;;5050829;28;20759;-67
2022/05/27 05:32:52;;;;;;;15.40;14.43;;;13.30;99.90;;;;;;5050999;28;20726;-67
2022/05/27 05:35:19;;;;;;;14.33;13.43;;;13.20;99.90;;;;;;5049342;28;20463;-67
2022/05/27 05:37:46;;;;;;;13.30;12.57;;;13.20;99.90;;;;;;5050126;28;21043;-69
2022/05/27 05:40:14;;;;;;;14.50;13.60;;;13.20;99.90;;;;;;5049700;28;20498;-70
2022/05/27 05:42:42;;;;;;;12.80;12.10;;;13.10;99.90;;;;;;5049511;28;20463;-69
2022/05/27 05:45:12;;;;;;;12.87;12.27;;;13.10;99.90;;;;;;5049617;28;20494;-69
2022/05/27 05:47:38;;;;;;;13.07;12.47;;;13.20;99.90;;;;;;5050335;28;20459;-68
2022/05/27 05:50:08;;;;;;;12.77;12.17;;;13.10;99.90;;;;;;5050139;28;20475;-70
2022/05/27 05:52:35;;;;;;;12.93;12.33;;;13.10;99.90;;;;;;5050528;28;20493;-71
2022/05/27 05:55:03;;;;;;;13.37;12.70;;;13.00;99.90;;;;;;5049643;28;20467;-69
2022/05/27 05:57:30;;;;;;;13.20;12.60;;;12.90;99.90;;;;;;5048549;28;21038;-69
2022/05/27 05:59:59;;;;;;;13.97;12.87;;;12.90;99.90;;;;;;5048671;28;20462;-70
2022/05/27 06:02:26;;;;;;;12.77;12.17;;;12.90;99.90;;;;;;5043765;28;20879;-70
2022/05/27 06:04:53;;;;;;;13.60;12.90;;;12.90;99.90;;;;;;5047626;28;20467;-70
2022/05/27 06:07:22;;;;;;;14.53;13.63;;;12.90;99.90;;;;;;5047716;28;20465;-71
2022/05/27 06:09:48;;;;;;;14.00;13.30;;;12.90;99.90;;;;;;5046702;28;20459;-70
2022/05/27 06:12:22;;;;;;;14.03;13.43;;;12.90;99.90;;;;;;5045343;28;20537;-70
2022/05/27 06:14:48;;;;;;;15.63;14.77;;;12.90;99.90;;;;;;5046241;28;20466;-69
2022/05/27 06:17:15;;;;;;;15.50;14.60;;;12.80;99.90;;;;;;5046238;28;20458;-69
2022/05/27 06:19:43;;;;;;;16.07;14.80;;;12.80;99.90;;;;;;5063909;28;20465;-68
2022/05/27 06:22:10;;;;;;;15.30;14.43;;;12.80;99.90;;;;;;5080501;28;20502;-67
2022/05/27 06:24:40;;;;;;;15.00;14.20;;;12.80;99.90;;;;;;5075880;28;20866;-68
2022/05/27 06:27:07;;;;;;;16.17;14.97;;;12.80;99.90;;;;;;5074539;28;20860;-68
2022/05/27 06:35:03;;;;;;;15.03;14.33;;;12.90;99.90;;;;;;5047785;28;20600;-69
2022/05/27 06:37:31;;;;;;;15.77;14.53;;;13.00;99.90;;;;;;5047064;28;20470;-68
2022/05/27 06:40:00;;;;;;;17.07;15.97;;;13.10;99.90;;;;;;5047807;28;20453;-68
2022/05/27 06:42:27;;;;;;;17.90;16.40;;;13.00;99.90;;;;;;5046605;28;20490;-68
2022/05/27 06:44:54;;;;;;;16.70;15.80;;;13.10;99.90;;;;;;5046907;28;20545;-68
2022/05/27 06:47:21;;;;;;;17.03;15.30;;;13.20;99.90;;;;;;5046764;28;20451;-69
2022/05/27 06:49:48;;;;;;;16.67;15.17;;;13.10;99.90;;;;;;5046437;28;20458;-69
2022/05/27 06:52:16;;;;;;;16.43;14.97;;;13.10;99.90;;;;;;5046251;28;20950;-69
2022/05/27 06:54:43;;;;;;;16.00;14.97;;;13.00;99.90;;;;;;5046819;28;20596;-69
2022/05/27 06:57:12;;;;;;;16.20;15.20;;;13.20;99.90;;;;;;5046353;28;20732;-68
2022/05/27 06:59:39;;;;;;;15.20;14.17;;;13.30;99.90;;;;;;5044255;28;20617;-68
2022/05/27 07:02:07;;;;;;;16.17;14.83;;;13.50;99.90;;;;;;5046000;28;21827;-68
2022/05/27 07:04:34;;;;;;;16.63;15.30;;;13.50;99.90;;;;;;5045957;28;20466;-69
2022/05/27 07:07:04;;;;;;;16.63;15.23;;;13.60;99.90;;;;;;5046438;28;20822;-68
2022/05/27 07:09:35;;;;;;;16.90;15.60;;;13.70;99.90;;;;;;5047458;28;20490;-70
2022/05/27 07:12:04;;;;;;;16.20;14.57;;;14.00;99.90;;;;;;5047351;28;21061;-69
2022/05/27 07:14:32;;;;;;;13.80;12.70;;;14.20;99.90;;;;;;5046345;28;20473;-69
2022/05/27 07:16:59;;;;;;;12.80;12.00;;;14.30;99.90;;;;;;5047052;28;20455;-68
2022/05/27 07:19:26;;;;;;;12.10;11.33;;;14.50;99.90;;;;;;5047133;28;20471;-69
2022/05/27 07:21:55;;;;;;;12.77;11.37;;;14.40;99.90;;;;;;5046465;28;21020;-66
2022/05/27 07:24:23;;;;;;;13.30;12.17;;;14.60;99.90;;;;;;5046294;28;20455;-70
2022/05/27 07:26:50;;;;;;;12.20;11.33;;;14.50;99.90;;;;;;5045667;28;20468;-68
2022/05/27 07:29:17;;;;;;;12.47;11.47;;;14.70;99.90;;;;;;5046642;28;20467;-68
2022/05/27 07:31:45;;;;;;;13.07;12.07;;;14.80;99.90;;;;;;5045693;28;20462;-67
2022/05/27 07:34:13;;;;;;;13.77;12.53;;;14.80;99.90;;;;;;5049788;28;20819;-67
2022/05/27 07:36:40;;;;;;;13.50;12.30;;;15.10;99.90;;;;;;5051359;28;20455;-67
2022/05/27 07:39:08;;;;;;;15.00;13.80;;;15.30;99.90;;;;;;5049955;28;20462;-68
2022/05/27 07:41:35;;;;;;;15.70;14.33;;;15.50;99.90;;;;;;5050160;28;20857;-68
2022/05/27 07:44:03;;;;;;;17.93;14.37;;;15.50;99.90;;;;;;5048945;28;20471;-68
2022/05/27 07:46:32;;;;;;;16.90;15.17;;;15.70;99.90;;;;;;5049451;28;20927;-67
2022/05/27 07:49:01;;;;;;;16.67;14.90;;;15.70;99.90;;;;;;5049786;28;20471;-66
2022/05/27 07:51:28;;;;;;;16.50;15.00;;;15.90;99.90;;;;;;5049916;28;20471;-68
2022/05/27 07:53:55;;;;;;;18.00;16.20;;;16.00;99.90;;;;;;5050500;28;20493;-69
2022/05/27 07:56:22;;;;;;;17.63;16.00;;;16.30;99.90;;;;;;5050618;28;20914;-66
2022/05/27 07:58:49;;;;;;;20.50;18.10;;;16.50;99.90;;;;;;5050005;28;20519;-67
2022/05/27 08:01:16;;;;;;;20.27;17.20;;;16.60;99.90;;;;;;5050681;28;20496;-68
2022/05/27 08:03:43;;;;;;;18.60;16.70;;;16.70;99.90;;;;;;5050670;28;20473;-65
2022/05/27 08:06:11;;;;;;;19.63;17.70;;;16.70;99.90;;;;;;5049973;28;20490;-66
2022/05/27 08:08:39;;;;;;;20.67;18.27;;;16.90;99.90;;;;;;5049075;28;20482;-67
2022/05/27 08:11:07;;;;;;;16.77;14.70;;;17.00;99.90;;;;;;5049551;28;20498;-67
2022/05/27 08:13:34;;;;;;;17.07;15.37;;;17.40;99.90;;;;;;5049998;28;20459;-67
2022/05/27 08:16:01;;;;;;;14.20;12.70;;;17.60;99.90;;;;;;5048891;28;20468;-67
2022/05/27 08:18:28;;;;;;;15.07;13.83;;;17.90;99.90;;;;;;5050208;28;20470;-66
2022/05/27 08:20:55;;;;;;;15.27;13.63;;;17.90;99.90;;;;;;5048405;28;20545;-67
2022/05/27 08:23:24;;;;;;;14.43;12.93;;;18.20;99.90;;;;;;5049681;28;20467;-66
2022/05/27 08:25:52;;;;;;;13.70;12.40;;;18.60;99.90;;;;;;5047107;28;20491;-67
2022/05/27 08:28:22;;;;;;;15.07;13.37;;;18.80;99.90;;;;;;5048400;28;20565;-66
2022/05/27 08:30:49;;;;;;;15.23;13.70;;;19.00;99.90;;;;;;5047766;28;21142;-66
2022/05/27 08:33:16;;;;;;;14.70;12.60;;;19.20;99.90;;;;;;5049477;28;20455;-67
2022/05/27 08:38:32;;;;;;;15.47;14.37;;;19.90;99.90;;;;;;5049405;28;20500;-66
2022/05/27 08:41:32;;;;;;;15.00;14.10;;;19.70;99.90;;;;;;5048918;28;20466;-67
2022/05/27 08:44:19;;;;;;;17.10;15.80;;;20.20;99.90;;;;;;5047570;28;20451;-66
2022/05/27 08:46:55;;;;;;;16.40;15.30;;;19.40;99.90;;;;;;5047922;28;20470;-67
2022/05/27 08:49:26;;;;;;;16.70;15.40;;;19.00;99.90;;;;;;5048590;28;20497;-66
2022/05/27 08:52:00;;;;;;;17.30;15.70;;;18.80;99.90;;;;;;5047803;28;20860;-68
2022/05/27 08:54:33;;;;;;;16.67;15.50;;;18.90;99.90;;;;;;5048338;28;20542;-67
2022/05/27 08:59:52;;;;;;;17.90;16.03;;;19.30;99.90;;;;;;5058932;28;20504;-68
2022/05/27 09:02:27;;;;;;;18.43;17.00;;;20.00;99.90;;;;;;5081968;28;20481;-67
2022/05/27 09:05:02;;;;;;;18.43;17.03;;;19.80;99.90;;;;;;5060833;28;20480;-66
2022/05/27 09:07:39;;;;;;;17.30;16.20;;;20.10;99.90;;;;;;5057178;28;21176;-68
2022/05/27 09:10:11;;;;;;;18.80;17.00;;;20.80;99.90;;;;;;5051184;28;20794;-68
2022/05/27 09:13:02;;;;;;;18.30;17.00;;;21.20;99.90;;;;;;5073755;28;20466;-67
2022/05/27 09:15:37;;;;;;;19.13;17.17;;;21.10;99.90;;;;;;5048270;28;20732;-68
2022/05/27 09:18:12;;;;;;;18.27;16.97;;;21.50;99.90;;;;;;5066081;28;20553;-67
2022/05/27 09:20:51;;;;;;;18.60;17.03;;;21.40;99.90;;;;;;5054923;28;20920;-66
2022/05/27 09:23:33;;;;;;;17.67;16.40;;;21.40;99.90;;;;;;5060372;28;20494;-68
2022/05/27 09:26:12;;;;;;;16.93;15.93;;;21.30;99.90;;;;;;5048137;28;20453;-68
2022/05/27 09:28:47;;;;;;;17.13;15.83;;;21.80;99.90;;;;;;5047677;28;20544;-67
2022/05/27 09:31:19;;;;;;;17.73;16.10;;;21.50;99.90;;;;;;5048931;28;20459;-67
2022/05/27 09:33:47;;;;;;;17.43;16.07;;;21.70;99.90;;;;;;5048490;28;20465;-68
2022/05/27 09:36:18;;;;;;;16.57;15.40;;;21.40;99.90;;;;;;5048671;28;21001;-68
2022/05/27 09:38:51;;;;;;;17.90;16.30;;;21.60;99.90;;;;;;5047936;28;20846;-67
2022/05/27 09:41:27;;;;;;;18.43;16.80;;;22.10;99.90;;;;;;5048126;28;21208;-69
2022/05/27 09:44:05;;;;;;;17.57;16.47;;;22.10;99.90;;;;;;5048129;28;20469;-67
2022/05/27 09:46:33;;;;;;;18.37;16.77;;;22.20;99.90;;;;;;5047407;28;20462;-68
2022/05/27 09:49:01;;;;;;;17.83;16.40;;;22.30;99.90;;;;;;5047475;28;20471;-67
2022/05/27 09:51:30;;;;;;;18.10;16.80;;;22.00;99.90;;;;;;5047256;28;20795;-68
2022/05/27 09:54:04;;;;;;;17.60;16.33;;;21.60;99.90;;;;;;5047890;28;20470;-69
2022/05/27 09:56:40;;;;;;;17.20;16.03;;;21.20;99.90;;;;;;5046967;28;20819;-68
2022/05/27 09:59:20;;;;;;;16.90;15.87;;;21.00;99.90;;;;;;5047270;28;20466;-69
2022/05/27 10:01:48;;;;;;;16.53;15.47;;;21.60;99.90;;;;;;5047115;28;21179;-68
2022/05/27 10:04:17;;;;;;;17.73;16.37;;;22.00;99.90;;;;;;5047294;28;20474;-69
2022/05/27 10:06:45;;;;;;;17.47;15.97;;;21.90;99.90;;;;;;5048561;28;20462;-69
2022/05/27 10:09:27;;;;;;;17.10;15.80;;;22.40;99.90;;;;;;5047072;28;21555;-68
2022/05/27 10:11:57;;;;;;;17.20;15.90;;;22.10;99.90;;;;;;5046859;28;20463;-70
2022/05/27 10:14:27;;;;;;;16.03;15.03;;;21.60;99.90;;;;;;5047673;28;20475;-69
2022/05/27 10:17:05;;;;;;;16.87;15.87;;;21.40;99.90;;;;;;5047884;28;20471;-71
2022/05/27 10:19:32;;;;;;;15.83;14.80;;;21.00;99.90;;;;;;5047641;28;20946;-69
2022/05/27 10:22:02;;;;;;;16.67;15.70;;;21.40;99.90;;;;;;5046969;28;20502;-69
2022/05/27 10:24:31;;;;;;;17.23;15.73;;;21.30;99.90;;;;;;5060749;28;20470;-71
2022/05/27 10:27:08;;;;;;;17.17;15.97;;;21.50;99.90;;;;;;5084510;28;20462;-68
2022/05/27 10:29:47;;;;;;;16.83;15.67;;;21.30;99.90;;;;;;5076547;28;20454;-68
2022/05/27 10:32:27;;;;;;;16.97;15.87;;;21.10;99.90;;;;;;5055053;28;20768;-68
2022/05/27 10:34:54;;;;;;;16.03;15.13;;;20.60;99.90;;;;;;5046871;28;20466;-69
2022/05/27 10:37:44;;;;;;;16.50;15.50;;;20.40;99.90;;;;;;5047127;28;20827;-67
2022/05/27 10:40:29;;;;;;;16.17;15.20;;;19.90;99.90;;;;;;5047389;28;20475;-70
2022/05/27 10:43:11;;;;;;;16.93;15.80;;;20.30;99.90;;;;;;5046978;28;20483;-68
2022/05/27 10:45:42;;;;;;;17.00;15.83;;;20.70;99.90;;;;;;5046476;28;20521;-67
2022/05/27 10:48:44;;;;;;;18.13;16.70;;;21.10;99.90;;;;;;5046954;28;20475;-67
2022/05/27 10:51:21;;;;;;;16.10;15.10;;;21.40;99.90;;;;;;5046541;28;22363;-68
2022/05/27 10:54:12;;;;;;;16.90;16.00;;;20.50;99.90;;;;;;5047344;28;20896;-67
2022/05/27 11:02:04;;;;;;;16.67;15.60;;;20.20;99.90;;;;;;5046175;28;20463;-67
2022/05/27 11:02:48;;;;;;;17.10;16.00;;;20.20;99.90;;;;;;5047101;28;20513;-66
2022/05/27 11:05:35;;;;;;;16.80;15.80;;;21.20;99.90;;;;;;5046940;28;20472;-66
2022/05/27 11:08:20;;;;;;;16.57;15.47;;;21.60;99.90;;;;;;5046431;28;20483;-70
2022/05/27 11:10:55;;;;;;;16.50;15.50;;;22.10;99.90;;;;;;5047822;28;20828;-66
2022/05/27 11:16:41;;;;;;;16.07;15.17;;;22.10;99.90;;;;;;5046895;28;20493;-65
2022/05/27 11:19:43;;;;;;;17.20;16.00;;;21.70;99.90;;;;;;5047142;28;20985;-70
2022/05/27 11:22:24;;;;;;;18.00;16.50;;;21.60;99.90;;;;;;5004444;28;20535;-66
2022/05/27 11:25:14;;;;;;;18.73;16.93;;;20.90;99.90;;;;;;5047289;28;20471;-68
2022/05/27 11:28:20;;;;;;;20.27;18.87;;;21.40;99.90;;;;;;5045913;28;20455;-67
2022/05/27 11:31:00;;;;;;;16.60;15.63;;;20.70;99.90;;;;;;5043626;28;20461;-67
2022/05/27 11:33:45;;;;;;;15.93;14.73;;;20.90;99.90;;;;;;5047404;28;20465;-67
2022/05/27 11:36:24;;;;;;;16.53;15.13;;;21.50;99.90;;;;;;5046755;28;20458;-67
2022/05/27 11:39:12;;;;;;;15.40;14.60;;;21.80;99.90;;;;;;5046678;28;21548;-67
2022/05/27 11:41:49;;;;;;;15.30;14.47;;;22.70;98.30;;;;;;5046929;28;20470;-67
2022/05/27 11:44:25;;;;;;;16.47;15.27;;;22.50;98.60;;;;;;5046435;28;21400;-68
2022/05/27 11:47:21;;;;;;;16.50;15.30;;;22.90;99.50;;;;;;5046787;28;21132;-69
2022/05/27 11:50:02;;;;;;;16.40;15.30;;;23.90;97.50;;;;;;5046830;28;20487;-69
2022/05/27 11:52:46;;;;;;;16.50;15.47;;;23.90;96.60;;;;;;5045584;28;20474;-68
2022/05/27 11:55:39;;;;;;;17.50;16.07;;;23.70;97.40;;;;;;5046852;28;21123;-68
2022/05/27 11:58:15;;;;;;;17.17;15.87;;;23.30;96.40;;;;;;5029409;28;20462;-69
2022/05/27 12:00:47;;;;;;;17.03;15.40;;;22.10;97.80;;;;;;5046384;28;20465;-69
2022/05/27 12:03:20;;;;;;;16.40;15.20;;;21.20;99.60;;;;;;5046080;28;20510;-68
2022/05/27 12:05:52;;;;;;;15.90;15.00;;;21.30;99.20;;;;;;5046883;28;20849;-69
2022/05/27 12:08:28;;;;;;;16.23;15.00;;;21.70;99.50;;;;;;5046609;28;21125;-68
2022/05/27 12:11:00;;;;;;;16.70;15.53;;;21.20;99.40;;;;;;5046220;28;20458;-69
2022/05/27 12:13:32;;;;;;;16.13;15.07;;;21.70;99.90;;;;;;5046618;28;21006;-68
2022/05/27 12:16:02;;;;;;;15.23;14.23;;;22.30;99.00;;;;;;5045999;28;21030;-67
2022/05/27 12:18:35;;;;;;;16.00;14.83;;;22.30;97.80;;;;;;5045650;28;21040;-68
2022/05/27 12:21:07;;;;;;;15.80;14.60;;;22.40;97.00;;;;;;5049858;28;20462;-69
2022/05/27 12:23:38;;;;;;;15.60;14.33;;;22.40;97.00;;;;;;5050370;28;20495;-68
2022/05/27 12:26:06;;;;;;;16.40;15.50;;;22.90;96.00;;;;;;5049767;28;20455;-68
2022/05/27 12:28:42;;;;;;;16.30;15.10;;;23.80;95.70;;;;;;5049702;28;21056;-67
2022/05/27 12:31:10;;;;;;;15.77;14.57;;;24.10;92.50;;;;;;5049863;28;20564;-68
2022/05/27 12:33:38;;;;;;;15.90;14.43;;;23.70;93.00;;;;;;5050015;28;21055;-67
2022/05/27 12:36:09;;;;;;;15.23;14.13;;;22.60;93.00;;;;;;5050053;28;20463;-67
2022/05/27 12:38:44;;;;;;;16.97;15.47;;;22.30;95.60;;;;;;5049173;28;20582;-68
2022/05/27 12:41:12;;;;;;;15.90;14.60;;;22.00;96.00;;;;;;5049777;28;20458;-67
2022/05/27 12:43:54;;;;;;;16.27;15.00;;;20.70;96.00;;;;;;5049547;28;20497;-68
2022/05/27 12:46:32;;;;;;;15.67;14.40;;;20.50;96.80;;;;;;5049614;28;20533;-68
2022/05/27 12:49:28;;;;;;;14.40;13.60;;;19.90;96.90;;;;;;5049608;28;20557;-68
2022/05/27 12:51:57;;;;;;;15.87;14.80;;;21.00;98.20;;;;;;5046682;28;20859;-71
2022/05/27 12:54:57;;;;;;;15.50;14.10;;;22.30;96.70;;;;;;5049620;28;20489;-70
2022/05/27 13:03:52;;;;;;;15.97;14.87;;;22.00;93.80;;;;;;5048719;28;20497;-68
2022/05/27 13:06:39;;;;;;;16.27;14.97;;;20.60;95.30;;;;;;5048889;28;20664;-67
2022/05/27 13:09:38;;;;;;;15.80;14.33;;;21.00;95.60;;;;;;5048300;28;20561;-67
2022/05/27 13:12:05;;;;;;;16.53;15.27;;;21.90;95.70;;;;;;5048210;28;21518;-67
2022/05/27 13:14:46;;;;;;;15.60;14.40;;;21.20;93.00;;;;;;5049134;28;20467;-67
2022/05/27 13:17:31;;;;;;;14.53;13.50;;;20.60;93.20;;;;;;5062619;28;20463;-68
2022/05/27 13:20:05;;;;;;;15.80;14.73;;;21.10;94.50;;;;;;5082269;28;20462;-67
2022/05/27 13:22:34;;;;;;;15.37;14.40;;;22.00;92.20;;;;;;5078328;28;20473;-68
2022/05/27 13:25:24;;;;;;;15.20;13.97;;;22.20;92.70;;;;;;5048359;28;20588;-68
2022/05/27 13:27:56;;;;;;;15.40;13.90;;;22.90;90.90;;;;;;5048731;28;20463;-67